CheckWX is a tool to help pilots better visualize weather data.  It is not intended as a substitute for an official pre-flight weather briefing.

21:01:00 UTC

KBNA METAR
Nashville International Airport
Nashville, Tennessee, USA
Current

1 hour ago

KBNA 181953Z 34007KT 10SM FEW033 SCT200 BKN250 05/M04 A3037 RMK AO2 SLP285 T00501044 $
Observed
Feb-18 @ 19:53 UTC
Wind
  • 340° at 7 KTS
Visibility
10 SM
Flight Rules
VFR
Cloud Levels
  • Few at 3,300' AGL
  • Scattered at 20,000' AGL
  • Broken at 25,000' AGL
Temperature
C / 41°F
Dewpoint
-4°C / 25°F
Humidity
53%
Altimeter
30.37" Hg
Pressure
1028.5 hPa
Previous

2 hours ago

KBNA 181853Z 32008KT 10SM SCT030 BKN200 OVC250 05/M04 A3036 RMK AO2 SLP283 T00501039 $
Observed
Feb-18 @ 18:53 UTC
Wind
  • 320° at 8 KTS
Visibility
10 SM
Flight Rules
VFR
Cloud Levels
  • Scattered at 3,000' AGL
  • Broken at 20,000' AGL
  • Overcast at 25,000' AGL
Temperature
C / 41°F
Dewpoint
-4°C / 25°F
Humidity
53%
Altimeter
30.36" Hg
Pressure
1028.3 hPa
Previous

3 hours ago

KBNA 181753Z 33008KT 10SM SCT028 BKN200 BKN250 03/M04 A3038 RMK AO2 SLP289 T00331039 10039 20011 51020 $
Observed
Feb-18 @ 17:53 UTC
Wind
  • 330° at 8 KTS
Visibility
10 SM
Flight Rules
VFR
Cloud Levels
  • Scattered at 2,800' AGL
  • Broken at 20,000' AGL
  • Broken at 25,000' AGL
Temperature
C / 37°F
Dewpoint
-4°C / 25°F
Humidity
60%
Altimeter
30.38" Hg
Pressure
1028.9 hPa